Time;durP1;ratioP1;P1;durP2;ratioP2;P2;SDS_P1;SDS_P2;PMS_P1;PMS_P2;Temp;Humidity;BMP_temperature;BMP_pressure;BME280_temperature;BME280_humidity;BME280_pressure;Samples;Min_cycle;Max_cycle;Signal;HPM_P1;HPM_P2
2021/09/16 00:01:22;;;;;;;8.20;2.85;;;17.50;99.90;;;;;;5006395;28;20053;-79
2021/09/16 00:03:49;;;;;;;7.30;3.03;;;17.50;99.90;;;;;;5006038;28;20070;-79
2021/09/16 00:06:18;;;;;;;6.00;3.20;;;17.50;99.90;;;;;;5009120;28;20070;-78
2021/09/16 00:08:44;;;;;;;7.53;3.30;;;17.40;99.90;;;;;;5010425;28;20064;-79
2021/09/16 00:11:11;;;;;;;8.05;3.42;;;17.30;99.90;;;;;;5009519;28;20109;-79
2021/09/16 00:13:38;;;;;;;6.65;2.83;;;17.30;99.90;;;;;;5008301;28;20077;-77
2021/09/16 00:16:05;;;;;;;4.45;2.65;;;17.30;99.90;;;;;;5010105;28;20086;-79
2021/09/16 00:18:33;;;;;;;9.13;3.55;;;17.30;99.90;;;;;;5007364;28;20110;-77
2021/09/16 00:21:00;;;;;;;5.70;2.67;;;17.30;99.90;;;;;;5007722;28;20114;-78
2021/09/16 00:23:28;;;;;;;7.72;2.83;;;17.30;99.90;;;;;;5008527;28;20054;-77
2021/09/16 00:25:55;;;;;;;8.45;3.65;;;17.30;99.90;;;;;;5011768;28;20169;-79
2021/09/16 00:28:22;;;;;;;6.22;3.28;;;17.30;99.90;;;;;;5012819;28;20086;-78
2021/09/16 00:30:48;;;;;;;8.25;3.38;;;17.20;99.90;;;;;;5016208;28;20054;-78
2021/09/16 00:33:15;;;;;;;7.35;3.25;;;17.20;99.90;;;;;;5016544;28;20073;-79
2021/09/16 00:35:43;;;;;;;16.33;3.95;;;17.10;99.90;;;;;;5017902;28;20058;-79
2021/09/16 00:38:10;;;;;;;4.57;2.90;;;17.10;99.90;;;;;;5013583;28;20117;-78
2021/09/16 00:40:38;;;;;;;7.45;2.80;;;17.00;99.90;;;;;;5011177;28;20088;-79
2021/09/16 00:43:05;;;;;;;10.95;3.30;;;16.90;99.90;;;;;;5010868;28;20086;-78
2021/09/16 00:45:32;;;;;;;7.80;3.20;;;16.90;99.90;;;;;;5009942;28;20529;-78
2021/09/16 00:47:59;;;;;;;9.13;3.22;;;16.80;99.90;;;;;;5009284;28;20101;-79
2021/09/16 00:50:26;;;;;;;9.02;3.38;;;16.70;99.90;;;;;;5006716;28;20054;-79
2021/09/16 00:52:54;;;;;;;8.65;3.25;;;16.60;99.90;;;;;;5006039;28;20464;-78
2021/09/16 00:55:22;;;;;;;8.25;3.50;;;16.50;99.90;;;;;;5006823;28;20082;-79
2021/09/16 00:57:52;;;;;;;6.75;3.30;;;16.50;99.90;;;;;;5007379;28;20165;-78
2021/09/16 01:00:20;;;;;;;7.30;3.38;;;16.40;99.90;;;;;;5007828;28;20124;-79
2021/09/16 01:02:47;;;;;;;10.20;3.50;;;16.30;99.90;;;;;;5007658;28;20133;-78
2021/09/16 01:05:14;;;;;;;5.60;3.28;;;16.30;99.90;;;;;;5047018;23;20106;-82
2021/09/16 01:07:41;;;;;;;7.15;3.65;;;16.20;99.90;;;;;;5010516;28;20042;-82
2021/09/16 01:10:11;;;;;;;7.95;3.40;;;16.20;99.90;;;;;;5009509;28;20073;-83
2021/09/16 01:12:39;;;;;;;10.18;3.85;;;16.20;99.90;;;;;;5010558;28;20058;-80
2021/09/16 01:15:10;;;;;;;6.97;3.50;;;16.10;99.90;;;;;;5011138;28;20054;-83
2021/09/16 01:17:37;;;;;;;7.40;3.90;;;16.10;99.90;;;;;;5013123;28;20053;-83
2021/09/16 01:20:05;;;;;;;5.95;3.38;;;16.00;99.90;;;;;;5012815;28;20050;-82
2021/09/16 01:22:34;;;;;;;10.18;3.60;;;16.00;99.90;;;;;;5012800;28;20054;-83
2021/09/16 01:25:01;;;;;;;7.00;3.30;;;16.00;99.90;;;;;;5011917;28;20074;-83
2021/09/16 01:27:28;;;;;;;8.00;3.65;;;16.00;99.90;;;;;;5009306;28;20050;-84
2021/09/16 01:29:58;;;;;;;6.70;3.65;;;15.90;99.90;;;;;;5005676;28;20050;-85
2021/09/16 01:32:24;;;;;;;8.98;4.10;;;15.90;99.90;;;;;;5003507;28;20050;-85
2021/09/16 01:34:51;;;;;;;7.45;4.03;;;15.90;99.90;;;;;;5001736;28;20129;-85
2021/09/16 01:37:18;;;;;;;9.43;3.97;;;15.90;99.90;;;;;;5001575;28;20046;-85
2021/09/16 01:39:47;;;;;;;7.13;4.18;;;15.80;99.90;;;;;;5000920;28;20070;-85
2021/09/16 01:42:14;;;;;;;12.70;3.90;;;15.80;99.90;;;;;;5000126;28;20109;-85
2021/09/16 01:44:41;;;;;;;8.32;4.25;;;15.80;99.90;;;;;;5000424;28;20133;-85
2021/09/16 01:47:08;;;;;;;8.93;4.68;;;15.80;99.90;;;;;;5006504;28;20134;-85
2021/09/16 01:49:35;;;;;;;7.57;3.97;;;15.80;99.90;;;;;;5004289;28;20050;-85
2021/09/16 01:52:01;;;;;;;6.70;3.90;;;15.70;99.90;;;;;;5002583;28;20103;-85
2021/09/16 01:54:28;;;;;;;6.65;3.90;;;15.70;99.90;;;;;;5002699;28;20097;-84
2021/09/16 01:56:57;;;;;;;9.43;4.25;;;15.70;99.90;;;;;;5002607;28;20105;-85
2021/09/16 01:59:23;;;;;;;8.65;4.30;;;15.60;99.90;;;;;;5007373;28;20105;-84
2021/09/16 02:01:50;;;;;;;8.20;4.78;;;15.50;99.90;;;;;;5007345;28;20109;-85
2021/09/16 02:04:17;;;;;;;8.80;4.00;;;15.50;99.90;;;;;;5008603;28;20146;-84
2021/09/16 02:06:45;;;;;;;8.68;4.32;;;15.40;99.90;;;;;;5009909;28;20053;-84
2021/09/16 02:09:12;;;;;;;8.50;4.15;;;15.40;99.90;;;;;;5010942;28;20130;-84
2021/09/16 02:11:38;;;;;;;9.68;3.80;;;15.40;99.90;;;;;;5009372;28;20069;-83
2021/09/16 02:14:07;;;;;;;8.38;4.03;;;15.40;99.90;;;;;;5007522;28;20074;-84
2021/09/16 02:16:34;;;;;;;9.23;4.05;;;15.40;99.90;;;;;;5003041;28;20097;-84
2021/09/16 02:19:01;;;;;;;7.80;3.70;;;15.40;99.90;;;;;;5004721;28;20081;-83
2021/09/16 02:21:28;;;;;;;6.95;3.95;;;15.40;99.90;;;;;;5002631;28;20046;-84
2021/09/16 02:23:55;;;;;;;11.10;4.05;;;15.40;99.90;;;;;;5007205;28;20082;-87
2021/09/16 02:26:22;;;;;;;9.20;4.50;;;15.30;99.90;;;;;;5004365;28;20105;-84
2021/09/16 02:28:48;;;;;;;7.45;4.55;;;15.30;99.90;;;;;;5011094;28;20181;-84
2021/09/16 02:31:17;;;;;;;11.60;4.63;;;15.30;99.90;;;;;;5016232;28;20038;-82
2021/09/16 02:33:44;;;;;;;8.98;4.40;;;15.20;99.90;;;;;;5014436;28;20038;-84
2021/09/16 02:36:10;;;;;;;10.95;4.88;;;15.20;99.90;;;;;;5016727;28;20039;-82
2021/09/16 02:38:37;;;;;;;12.65;4.80;;;15.20;99.90;;;;;;5014225;28;20042;-84
2021/09/16 02:41:04;;;;;;;12.10;4.80;;;15.20;99.90;;;;;;5008509;28;20084;-84
2021/09/16 02:43:31;;;;;;;9.00;5.05;;;15.10;99.90;;;;;;4993640;28;20057;-82
2021/09/16 02:45:58;;;;;;;10.45;4.45;;;15.10;99.90;;;;;;4997530;28;20074;-82
2021/09/16 02:48:26;;;;;;;10.77;4.75;;;15.00;99.90;;;;;;4990547;28;20097;-83
2021/09/16 02:50:53;;;;;;;10.52;4.60;;;14.90;99.90;;;;;;4986539;28;20109;-84
2021/09/16 02:53:21;;;;;;;10.80;4.65;;;14.90;99.90;;;;;;4981090;28;20066;-84
2021/09/16 02:55:48;;;;;;;6.53;4.45;;;14.90;99.90;;;;;;4981422;28;20082;-85
2021/09/16 02:58:15;;;;;;;14.07;4.95;;;14.90;99.90;;;;;;4980732;28;20090;-85
2021/09/16 03:00:43;;;;;;;11.07;4.85;;;15.00;99.90;;;;;;4982335;28;20057;-86
2021/09/16 03:03:14;;;;;;;11.50;4.55;;;15.00;99.90;;;;;;4984763;28;20051;-83
2021/09/16 03:05:43;;;;;;;11.85;4.60;;;15.10;99.90;;;;;;4985829;28;20046;-84
2021/09/16 03:08:23;;;;;;;12.70;4.95;;;15.00;99.90;;;;;;4998325;28;20132;-85
2021/09/16 03:11:00;;;;;;;11.95;5.50;;;15.10;99.90;;;;;;5006772;28;20052;-84
2021/09/16 03:13:27;;;;;;;12.43;5.47;;;15.10;99.90;;;;;;5012779;28;20137;-84
2021/09/16 03:15:54;;;;;;;10.48;6.25;;;15.10;99.90;;;;;;5011658;28;20050;-84
2021/09/16 03:18:25;;;;;;;10.55;6.53;;;15.10;99.90;;;;;;5011278;28;20046;-83
2021/09/16 03:20:53;;;;;;;16.05;7.07;;;15.10;99.90;;;;;;5011663;28;20524;-83
2021/09/16 03:23:20;;;;;;;18.45;7.95;;;15.10;99.90;;;;;;5009256;28;20046;-83
2021/09/16 03:25:47;;;;;;;16.98;8.90;;;15.00;99.90;;;;;;5003297;28;20085;-83
2021/09/16 03:28:14;;;;;;;15.82;9.85;;;15.00;99.90;;;;;;5001423;28;20050;-83
2021/09/16 03:30:41;;;;;;;17.88;10.57;;;15.00;99.90;;;;;;4999114;28;20080;-83
2021/09/16 03:33:08;;;;;;;19.00;10.20;;;14.90;99.90;;;;;;4981951;28;20093;-81
2021/09/16 03:35:35;;;;;;;18.95;10.80;;;14.90;99.90;;;;;;4981773;28;20082;-82
2021/09/16 03:38:03;;;;;;;17.73;11.85;;;14.80;99.90;;;;;;4981086;28;20489;-81
2021/09/16 03:40:30;;;;;;;24.27;12.95;;;14.80;99.90;;;;;;4982436;28;20055;-82
2021/09/16 03:42:57;;;;;;;18.38;12.20;;;14.80;99.90;;;;;;4981900;28;20083;-82
2021/09/16 03:45:23;;;;;;;23.25;13.20;;;14.80;99.90;;;;;;4981777;28;20054;-82
2021/09/16 03:47:50;;;;;;;25.63;13.43;;;14.70;99.90;;;;;;4980693;28;20134;-83
2021/09/16 03:50:18;;;;;;;25.13;14.20;;;14.70;99.90;;;;;;4981572;28;20197;-83
2021/09/16 03:52:45;;;;;;;23.77;13.93;;;14.70;99.90;;;;;;4996267;28;20220;-82
2021/09/16 03:55:14;;;;;;;21.42;13.52;;;14.70;99.90;;;;;;4998296;28;20050;-82
2021/09/16 03:57:41;;;;;;;21.88;13.52;;;14.60;99.90;;;;;;4998460;28;20520;-83
2021/09/16 04:00:09;;;;;;;23.60;13.77;;;14.60;99.90;;;;;;4998960;28;20058;-82
2021/09/16 04:02:36;;;;;;;18.67;13.52;;;14.60;99.90;;;;;;4998936;28;20058;-83
2021/09/16 04:05:03;;;;;;;25.65;14.85;;;14.70;99.90;;;;;;4997492;28;20133;-82
2021/09/16 04:07:30;;;;;;;28.23;15.35;;;14.70;99.90;;;;;;4995829;28;20070;-83
2021/09/16 04:09:57;;;;;;;21.40;14.27;;;14.70;99.90;;;;;;4999039;28;20153;-83
2021/09/16 04:12:25;;;;;;;23.65;14.65;;;14.70;99.90;;;;;;5001250;28;20134;-82
2021/09/16 04:14:53;;;;;;;25.60;14.25;;;14.70;99.90;;;;;;4999511;28;20054;-82
2021/09/16 04:17:20;;;;;;;26.70;14.77;;;14.70;99.90;;;;;;4999214;28;20116;-83
2021/09/16 04:19:47;;;;;;;23.63;14.27;;;14.80;99.90;;;;;;5000463;28;20535;-83
2021/09/16 04:22:14;;;;;;;21.67;13.77;;;14.80;99.90;;;;;;5000230;28;20133;-83
2021/09/16 04:24:41;;;;;;;19.60;13.93;;;14.90;99.90;;;;;;5000854;28;20129;-83
2021/09/16 04:27:09;;;;;;;24.15;14.63;;;14.90;99.90;;;;;;5000789;28;20129;-82
2021/09/16 04:29:37;;;;;;;23.17;15.13;;;14.90;99.90;;;;;;5000392;28;20050;-83
2021/09/16 04:32:05;;;;;;;20.83;14.82;;;14.90;99.90;;;;;;5000015;28;20061;-82
2021/09/16 04:34:32;;;;;;;26.40;16.05;;;14.90;99.90;;;;;;4999002;28;20129;-83
2021/09/16 04:36:59;;;;;;;26.75;17.35;;;14.90;99.90;;;;;;5000161;28;20133;-83
2021/09/16 04:39:26;;;;;;;26.42;16.55;;;14.90;99.90;;;;;;5000062;28;20042;-81
2021/09/16 04:41:52;;;;;;;24.52;15.75;;;14.80;99.90;;;;;;5001282;28;20133;-84
2021/09/16 04:44:19;;;;;;;25.67;16.88;;;14.70;99.90;;;;;;5000786;28;20118;-84
2021/09/16 04:46:48;;;;;;;24.27;15.50;;;14.70;99.90;;;;;;4999806;28;20536;-83
2021/09/16 04:49:14;;;;;;;23.52;14.50;;;14.60;99.90;;;;;;4999585;28;20077;-84
2021/09/16 04:51:41;;;;;;;20.52;12.48;;;14.60;99.90;;;;;;4999132;28;20082;-83
2021/09/16 04:54:08;;;;;;;20.02;11.55;;;14.60;99.90;;;;;;4998072;28;20133;-84
2021/09/16 04:56:35;;;;;;;14.57;10.88;;;14.50;99.90;;;;;;4998960;28;20095;-84
2021/09/16 04:59:02;;;;;;;23.83;10.98;;;14.50;99.90;;;;;;4978867;28;20138;-82
2021/09/16 05:01:29;;;;;;;18.98;11.43;;;14.40;99.90;;;;;;4971686;28;20079;-80
2021/09/16 05:03:57;;;;;;;18.05;11.55;;;14.30;99.90;;;;;;4981778;28;20082;-81
2021/09/16 05:06:24;;;;;;;19.85;11.05;;;14.30;99.90;;;;;;4984059;28;20129;-81
2021/09/16 05:08:51;;;;;;;17.13;11.60;;;14.30;99.90;;;;;;4985172;28;20082;-80
2021/09/16 05:11:18;;;;;;;16.52;10.80;;;14.30;99.90;;;;;;4985540;28;20437;-81
2021/09/16 05:13:45;;;;;;;19.58;9.98;;;14.30;99.90;;;;;;4980715;28;20464;-80
2021/09/16 05:16:11;;;;;;;20.08;11.45;;;14.30;99.90;;;;;;4977698;28;20055;-81
2021/09/16 05:18:38;;;;;;;19.83;10.65;;;14.30;99.90;;;;;;4985126;28;20117;-80
2021/09/16 05:21:07;;;;;;;17.88;11.05;;;14.30;99.90;;;;;;4981740;28;20130;-82
2021/09/16 05:23:34;;;;;;;19.00;11.15;;;14.30;99.90;;;;;;4975848;28;20089;-80
2021/09/16 05:26:01;;;;;;;19.80;11.73;;;14.30;99.90;;;;;;4967667;28;20082;-81
2021/09/16 05:28:28;;;;;;;17.25;10.98;;;14.30;99.90;;;;;;4959415;29;20093;-82
2021/09/16 05:30:55;;;;;;;17.38;10.85;;;14.30;99.90;;;;;;4959599;29;20134;-81
2021/09/16 05:33:22;;;;;;;19.15;11.40;;;14.30;99.90;;;;;;4963944;29;20062;-82
2021/09/16 05:35:48;;;;;;;21.50;10.77;;;14.30;99.90;;;;;;4962244;29;20525;-82
2021/09/16 05:38:17;;;;;;;18.92;10.52;;;14.30;99.90;;;;;;4962634;29;20130;-83
2021/09/16 05:40:44;;;;;;;14.77;10.13;;;14.30;99.90;;;;;;4963467;29;20458;-83
2021/09/16 05:43:10;;;;;;;15.95;9.98;;;14.30;99.90;;;;;;4964032;29;20142;-82
2021/09/16 05:45:38;;;;;;;17.67;9.90;;;14.30;99.90;;;;;;4963310;29;20486;-83
2021/09/16 05:48:05;;;;;;;18.45;10.45;;;14.20;99.90;;;;;;4962103;29;20051;-82
2021/09/16 05:50:32;;;;;;;15.45;9.27;;;14.20;99.90;;;;;;4962289;29;20087;-80
2021/09/16 05:52:59;;;;;;;18.48;10.15;;;14.30;99.90;;;;;;4960993;29;20146;-80
2021/09/16 05:55:28;;;;;;;14.43;8.77;;;14.30;99.90;;;;;;4960936;29;20134;-80
2021/09/16 05:57:55;;;;;;;13.02;8.65;;;14.40;99.90;;;;;;4961488;28;20417;-80
2021/09/16 06:00:23;;;;;;;15.95;9.13;;;14.40;99.90;;;;;;4962447;29;20433;-81
2021/09/16 06:02:50;;;;;;;13.88;8.30;;;14.50;99.90;;;;;;4962099;29;20048;-83
2021/09/16 06:05:17;;;;;;;14.27;8.35;;;14.70;99.90;;;;;;4964348;28;20147;-81
2021/09/16 06:07:44;;;;;;;11.68;7.90;;;14.80;99.90;;;;;;4966481;28;20051;-82
2021/09/16 06:10:11;;;;;;;15.00;7.75;;;15.00;99.90;;;;;;4969583;29;20094;-81
2021/09/16 06:12:40;;;;;;;12.85;7.82;;;15.20;99.90;;;;;;4969429;29;20139;-81
2021/09/16 06:15:07;;;;;;;15.63;8.98;;;15.30;99.90;;;;;;4968250;29;20051;-80
2021/09/16 06:17:34;;;;;;;16.67;8.73;;;15.40;99.90;;;;;;4970132;28;20078;-82
2021/09/16 06:20:01;;;;;;;13.40;7.38;;;15.50;99.90;;;;;;4972998;29;20051;-82
2021/09/16 06:22:28;;;;;;;13.43;8.18;;;15.70;99.90;;;;;;4971526;29;20097;-82
2021/09/16 06:24:55;;;;;;;12.10;8.38;;;15.90;99.90;;;;;;4972206;29;20051;-82
2021/09/16 06:27:22;;;;;;;12.13;7.25;;;16.00;99.90;;;;;;4972618;28;20067;-82
2021/09/16 06:29:50;;;;;;;16.08;7.78;;;16.10;99.90;;;;;;4974596;28;20159;-82
2021/09/16 06:32:17;;;;;;;16.10;7.82;;;16.10;99.90;;;;;;4974421;29;20075;-81
2021/09/16 06:34:44;;;;;;;16.85;8.38;;;16.10;99.90;;;;;;4972062;28;20062;-81
2021/09/16 06:37:11;;;;;;;17.60;9.25;;;16.00;99.90;;;;;;4971117;29;20090;-82
2021/09/16 06:39:38;;;;;;;16.90;10.20;;;16.10;99.90;;;;;;4971848;29;20070;-81
2021/09/16 06:42:05;;;;;;;17.38;11.30;;;16.20;99.90;;;;;;4970829;28;20051;-81
2021/09/16 06:44:32;;;;;;;17.75;10.25;;;16.20;99.90;;;;;;4971679;29;20086;-81
2021/09/16 06:47:00;;;;;;;19.25;11.07;;;16.20;99.90;;;;;;4971201;29;20075;-81
2021/09/16 06:49:27;;;;;;;17.65;11.38;;;16.20;99.90;;;;;;4973984;29;20079;-83
2021/09/16 06:51:55;;;;;;;17.67;12.15;;;16.20;99.90;;;;;;4973366;29;20051;-83
2021/09/16 06:54:22;;;;;;;19.27;11.35;;;16.20;99.90;;;;;;4969780;29;20489;-82
2021/09/16 06:56:49;;;;;;;22.23;12.57;;;16.20;99.90;;;;;;4969124;29;20134;-81
2021/09/16 06:59:16;;;;;;;18.95;11.98;;;16.10;99.90;;;;;;4968917;29;20130;-82
2021/09/16 07:01:42;;;;;;;16.77;11.52;;;16.10;99.90;;;;;;4968017;29;20081;-80
2021/09/16 07:04:11;;;;;;;21.73;12.18;;;16.10;99.90;;;;;;4992838;23;20074;-84
2021/09/16 07:06:38;;;;;;;17.23;12.70;;;16.10;99.90;;;;;;4998582;28;20061;-79
2021/09/16 07:09:05;;;;;;;19.42;12.80;;;16.10;99.90;;;;;;4999616;28;20456;-82
2021/09/16 07:11:32;;;;;;;22.10;13.60;;;16.20;99.90;;;;;;4998757;28;20069;-80
2021/09/16 07:13:59;;;;;;;23.20;14.10;;;16.20;99.90;;;;;;4999181;28;20090;-81
2021/09/16 07:16:26;;;;;;;21.30;14.07;;;16.20;99.90;;;;;;5000076;28;20137;-80
2021/09/16 07:18:53;;;;;;;23.35;14.93;;;16.30;99.90;;;;;;5000393;28;20047;-82
2021/09/16 07:21:21;;;;;;;24.00;16.08;;;16.30;99.90;;;;;;4999552;28;20078;-79
2021/09/16 07:23:48;;;;;;;23.73;15.23;;;16.40;99.90;;;;;;4999262;28;20141;-79
2021/09/16 07:26:15;;;;;;;25.55;15.60;;;16.50;99.90;;;;;;4997121;28;20053;-82
2021/09/16 07:28:42;;;;;;;24.00;14.73;;;16.80;99.90;;;;;;4997843;28;20042;-79
2021/09/16 07:31:09;;;;;;;20.95;14.00;;;17.00;99.90;;;;;;4998643;28;20046;-82
2021/09/16 07:33:35;;;;;;;20.20;13.98;;;17.10;99.90;;;;;;4997400;28;20173;-82
2021/09/16 07:36:02;;;;;;;20.27;14.88;;;17.20;99.90;;;;;;4995524;28;20113;-80
2021/09/16 07:38:31;;;;;;;23.50;14.80;;;17.30;99.90;;;;;;4997400;28;20093;-83
2021/09/16 07:40:58;;;;;;;25.13;13.05;;;17.30;99.90;;;;;;4998206;28;20829;-83
2021/09/16 07:43:24;;;;;;;20.58;13.65;;;17.40;99.90;;;;;;4999902;28;20053;-81
2021/09/16 07:45:51;;;;;;;18.48;13.40;;;17.40;99.90;;;;;;5002674;28;20561;-82
2021/09/16 07:48:19;;;;;;;20.92;12.52;;;17.50;99.90;;;;;;5000683;28;20373;-81
2021/09/16 07:50:47;;;;;;;18.63;12.55;;;17.60;99.90;;;;;;4999540;28;20438;-82
2021/09/16 07:53:33;;;;;;;20.80;11.13;;;17.80;99.90;;;;;;5001197;28;20050;-79
2021/09/16 07:56:29;;;;;;;14.02;10.23;;;17.90;99.90;;;;;;4998351;28;20050;-85
2021/09/16 07:59:01;;;;;;;16.30;10.20;;;17.90;99.90;;;;;;4994394;28;20283;-82
2021/09/16 08:01:31;;;;;;;12.27;9.27;;;18.00;99.90;;;;;;4995439;28;20050;-81
2021/09/16 08:04:00;;;;;;;18.15;10.15;;;18.00;99.90;;;;;;4998388;28;20555;-81
2021/09/16 08:06:27;;;;;;;18.63;10.75;;;18.00;99.90;;;;;;4998851;28;20051;-82
2021/09/16 08:09:25;;;;;;;20.90;10.68;;;17.80;99.90;;;;;;4999092;28;20054;-82
2021/09/16 08:11:56;;;;;;;21.23;10.25;;;17.80;99.90;;;;;;4995014;28;20046;-80
2021/09/16 08:18:04;;;;;;;17.27;10.48;;;17.80;99.90;;;;;;4979961;28;20697;-82
2021/09/16 08:23:38;;;;;;;14.75;11.77;;;17.80;99.90;;;;;;4987090;28;20042;-81
2021/09/16 08:29:46;;;;;;;20.27;13.57;;;17.80;99.90;;;;;;4980919;28;20151;-79
2021/09/16 08:35:49;;;;;;;13.68;10.63;;;18.00;99.90;;;;;;4993558;28;20069;-80
2021/09/16 08:38:16;;;;;;;16.60;10.70;;;18.00;99.90;;;;;;5004858;28;20118;-82
2021/09/16 08:40:44;;;;;;;14.65;10.30;;;18.00;99.90;;;;;;5002217;28;20050;-82
2021/09/16 08:43:12;;;;;;;18.25;10.48;;;18.00;99.90;;;;;;4999678;28;20100;-82
2021/09/16 08:45:52;;;;;;;15.18;9.60;;;18.10;99.90;;;;;;4996137;28;20081;-82
2021/09/16 08:48:21;;;;;;;13.43;9.35;;;18.20;99.90;;;;;;4997010;28;20090;-81
2021/09/16 08:50:49;;;;;;;11.77;9.48;;;18.30;99.90;;;;;;4997665;28;20077;-80
2021/09/16 08:53:21;;;;;;;13.40;9.18;;;18.40;99.90;;;;;;4999563;28;20104;-81
2021/09/16 08:55:48;;;;;;;11.73;9.10;;;18.50;99.90;;;;;;5003495;28;20058;-81
2021/09/16 08:58:16;;;;;;;10.57;7.00;;;18.60;99.90;;;;;;5002286;28;20480;-82
2021/09/16 09:00:43;;;;;;;10.18;7.38;;;18.60;99.90;;;;;;5000561;28;20130;-79
2021/09/16 09:03:13;;;;;;;10.82;6.75;;;18.70;99.90;;;;;;5005031;28;20137;-77
2021/09/16 09:05:59;;;;;;;11.60;7.13;;;18.60;99.90;;;;;;5002851;28;20397;-79
2021/09/16 09:08:27;;;;;;;13.02;7.05;;;18.80;99.90;;;;;;5000370;28;20133;-82
2021/09/16 09:10:56;;;;;;;8.77;6.60;;;18.90;99.90;;;;;;5001864;28;20073;-80
2021/09/16 09:13:31;;;;;;;10.05;7.60;;;19.20;99.90;;;;;;5001473;28;20054;-80
2021/09/16 09:16:03;;;;;;;14.10;7.72;;;19.50;99.90;;;;;;5005227;28;20054;-81
2021/09/16 09:18:56;;;;;;;11.90;7.13;;;19.70;99.90;;;;;;5003441;28;20058;-80
2021/09/16 09:21:41;;;;;;;9.15;6.30;;;19.90;99.90;;;;;;5016223;28;20101;-80
2021/09/16 09:24:08;;;;;;;10.95;7.25;;;20.10;99.90;;;;;;5017243;28;20061;-84
2021/09/16 09:26:38;;;;;;;14.52;6.85;;;20.20;99.90;;;;;;5013619;28;20038;-83
2021/09/16 09:29:17;;;;;;;10.15;5.88;;;20.40;99.90;;;;;;5015003;28;20085;-81
2021/09/16 09:31:58;;;;;;;10.60;5.97;;;20.40;99.90;;;;;;5013224;28;20054;-81
2021/09/16 09:34:35;;;;;;;12.52;6.35;;;20.40;99.90;;;;;;5009215;28;20054;-82
2021/09/16 09:37:12;;;;;;;8.57;6.53;;;20.30;99.90;;;;;;5006997;28;20065;-80
2021/09/16 09:39:39;;;;;;;8.88;5.75;;;20.40;99.90;;;;;;5006791;28;20046;-81
2021/09/16 09:42:21;;;;;;;10.60;6.13;;;20.50;99.90;;;;;;5008766;28;20479;-82
2021/09/16 09:44:51;;;;;;;8.40;5.57;;;20.20;99.90;;;;;;5009652;28;20137;-81
2021/09/16 09:47:37;;;;;;;9.20;5.03;;;20.10;99.90;;;;;;5007131;28;20400;-82
2021/09/16 09:50:27;;;;;;;9.43;5.25;;;20.10;99.90;;;;;;5009387;28;20137;-81
2021/09/16 09:53:12;;;;;;;7.43;5.32;;;20.20;99.90;;;;;;5008366;28;20085;-80
2021/09/16 09:55:49;;;;;;;8.82;5.20;;;20.20;99.90;;;;;;5006820;28;20088;-81
2021/09/16 09:58:30;;;;;;;8.52;5.32;;;20.00;99.90;;;;;;5006326;28;20079;-81
2021/09/16 10:00:57;;;;;;;9.05;5.10;;;20.10;99.90;;;;;;5004549;28;20500;-81
2021/09/16 10:03:29;;;;;;;9.20;6.05;;;20.20;99.90;;;;;;5004450;28;20608;-80
2021/09/16 10:06:09;;;;;;;11.70;5.28;;;20.40;99.90;;;;;;5006561;28;20084;-81
2021/09/16 10:08:39;;;;;;;7.70;5.13;;;20.60;99.90;;;;;;5007597;28;20050;-81
2021/09/16 10:11:06;;;;;;;7.07;5.47;;;20.50;99.90;;;;;;5005280;28;20061;-79
2021/09/16 10:13:34;;;;;;;8.15;4.78;;;20.50;99.90;;;;;;5004741;28;20074;-81
2021/09/16 10:16:04;;;;;;;11.93;4.90;;;20.50;99.90;;;;;;5006088;28;20114;-81
2021/09/16 10:18:32;;;;;;;9.18;4.63;;;20.40;99.90;;;;;;5005953;28;20500;-81
2021/09/16 10:21:02;;;;;;;8.18;4.60;;;20.50;99.90;;;;;;5004603;28;20047;-81
2021/09/16 10:23:30;;;;;;;9.02;4.63;;;20.70;99.90;;;;;;5002527;28;20062;-80
2021/09/16 10:25:57;;;;;;;6.80;4.70;;;20.90;99.90;;;;;;5000861;28;20464;-81
2021/09/16 10:28:36;;;;;;;5.88;4.43;;;21.00;99.90;;;;;;5002778;28;20109;-80
2021/09/16 10:31:20;;;;;;;10.50;4.28;;;21.10;99.90;;;;;;5004761;28;20073;-81
2021/09/16 10:33:47;;;;;;;6.47;4.30;;;21.30;99.90;;;;;;5007890;28;20046;-81
2021/09/16 10:36:20;;;;;;;6.53;4.60;;;21.30;99.90;;;;;;5006952;28;20057;-81
2021/09/16 10:38:48;;;;;;;6.65;4.00;;;21.20;99.90;;;;;;5005179;28;20109;-81
2021/09/16 10:41:20;;;;;;;6.80;4.65;;;21.20;99.90;;;;;;5000789;28;20072;-80
2021/09/16 10:43:49;;;;;;;6.32;4.00;;;21.20;99.90;;;;;;5002333;28;20086;-80
2021/09/16 10:46:35;;;;;;;6.35;4.20;;;21.30;99.90;;;;;;5001256;28;20092;-79
2021/09/16 10:49:30;;;;;;;5.85;4.30;;;21.30;99.90;;;;;;5001493;28;20046;-80
2021/09/16 10:52:01;;;;;;;6.18;3.95;;;21.40;99.90;;;;;;4998100;28;20406;-80
2021/09/16 10:54:40;;;;;;;8.68;4.00;;;21.50;99.90;;;;;;4996100;28;20248;-80
2021/09/16 10:57:12;;;;;;;8.93;3.90;;;21.60;99.90;;;;;;4997553;28;20046;-80
2021/09/16 11:00:05;;;;;;;12.52;4.78;;;21.70;99.90;;;;;;4996882;28;20054;-81
2021/09/16 11:02:51;;;;;;;;;;;21.80;99.90;;;;;;4994561;28;20469;-78
2021/09/16 11:05:19;;;;;;;8.52;3.97;;;21.90;99.90;;;;;;4984891;28;20268;-76
2021/09/16 11:07:55;;;;;;;8.38;4.28;;;21.90;99.90;;;;;;4995078;28;20508;-79
2021/09/16 11:10:51;;;;;;;6.93;4.20;;;21.90;99.90;;;;;;4986703;28;20058;-78
2021/09/16 11:13:54;;;;;;;8.85;4.15;;;21.80;99.90;;;;;;4977599;28;20480;-79
2021/09/16 11:16:27;;;;;;;5.22;4.05;;;21.70;99.90;;;;;;4968174;28;20090;-78
2021/09/16 11:19:02;;;;;;;10.07;4.25;;;21.60;99.90;;;;;;4977821;28;20098;-78
2021/09/16 11:21:29;;;;;;;7.70;3.75;;;21.50;99.90;;;;;;4994949;28;20134;-80
2021/09/16 11:23:58;;;;;;;10.05;4.10;;;21.60;99.90;;;;;;4975936;28;20050;-80
2021/09/16 11:26:27;;;;;;;5.80;4.03;;;21.70;99.90;;;;;;4976712;28;20420;-79
2021/09/16 11:29:02;;;;;;;5.97;3.92;;;21.80;99.90;;;;;;4976114;28;20115;-79
2021/09/16 11:31:30;;;;;;;8.52;4.00;;;21.80;99.90;;;;;;4974810;28;20054;-79
2021/09/16 11:34:20;;;;;;;11.90;5.60;;;21.70;99.90;;;;;;4976179;28;20138;-79
2021/09/16 11:37:18;;;;;;;7.43;4.90;;;21.30;99.90;;;;;;4977434;28;20061;-79
2021/09/16 11:39:56;;;;;;;5.60;3.40;;;21.20;99.90;;;;;;4975297;28;20051;-81
2021/09/16 11:42:24;;;;;;;5.47;3.83;;;21.20;99.90;;;;;;4976169;28;20054;-81
2021/09/16 11:45:09;;;;;;;6.65;3.72;;;21.30;99.90;;;;;;4978738;28;20055;-79
2021/09/16 11:47:38;;;;;;;5.13;3.05;;;21.40;99.90;;;;;;4978501;28;20078;-80
2021/09/16 11:50:07;;;;;;;6.78;3.75;;;21.60;99.90;;;;;;4976688;28;20061;-79
2021/09/16 11:52:39;;;;;;;7.88;4.28;;;21.70;99.90;;;;;;4974548;28;20050;-78
2021/09/16 11:55:11;;;;;;;7.72;4.90;;;21.80;99.90;;;;;;4986425;28;20118;-78
2021/09/16 11:58:01;;;;;;;10.13;4.75;;;21.80;99.90;;;;;;4976240;28;20111;-79
2021/09/16 12:00:38;;;;;;;8.90;4.75;;;21.80;99.90;;;;;;4996557;28;20129;-78
2021/09/16 12:03:07;;;;;;;6.38;4.90;;;21.80;99.90;;;;;;4998330;28;20487;-80
2021/09/16 12:05:39;;;;;;;7.13;4.75;;;21.80;99.90;;;;;;5000067;28;20069;-79
2021/09/16 12:08:07;;;;;;;;;;;21.80;99.90;;;;;;4994495;28;20081;-79
2021/09/16 12:10:49;;;;;;;6.10;4.70;;;21.70;99.90;;;;;;4989677;28;19922;-77
2021/09/16 12:13:26;;;;;;;13.35;4.85;;;21.60;99.90;;;;;;4973677;28;20050;-78
2021/09/16 12:16:08;;;;;;;7.05;4.45;;;21.70;99.90;;;;;;4973392;28;20133;-78
2021/09/16 12:18:38;;;;;;;5.15;4.03;;;21.70;99.90;;;;;;4973723;28;20050;-79
2021/09/16 12:21:06;;;;;;;7.93;4.03;;;21.80;99.90;;;;;;4973593;28;20048;-76
2021/09/16 12:23:33;;;;;;;8.15;3.90;;;21.90;99.90;;;;;;4975957;28;20347;-79
2021/09/16 12:26:15;;;;;;;9.07;4.00;;;21.90;99.90;;;;;;4976031;28;20153;-79
2021/09/16 12:28:51;;;;;;;4.50;3.72;;;21.90;99.90;;;;;;4977214;28;20051;-79
2021/09/16 12:31:23;;;;;;;8.40;4.07;;;21.80;99.90;;;;;;4975052;28;20077;-79
2021/09/16 12:33:55;;;;;;;11.73;5.43;;;21.80;99.90;;;;;;4974267;28;20619;-78
2021/09/16 12:36:24;;;;;;;10.10;4.80;;;21.70;99.90;;;;;;4977015;28;20392;-78
2021/09/16 12:38:55;;;;;;;7.45;4.50;;;21.70;99.90;;;;;;4975724;28;20085;-80
2021/09/16 12:41:29;;;;;;;8.93;4.40;;;21.70;99.90;;;;;;4975572;28;20073;-78
2021/09/16 12:43:58;;;;;;;8.93;4.80;;;21.80;99.90;;;;;;4974232;28;20055;-77
2021/09/16 12:46:25;;;;;;;5.63;4.10;;;21.90;99.90;;;;;;4975813;28;20078;-80
2021/09/16 12:48:54;;;;;;;9.85;4.47;;;21.90;99.90;;;;;;4993375;28;20420;-79
2021/09/16 12:51:22;;;;;;;6.38;4.25;;;21.90;99.90;;;;;;4995433;28;20046;-79
2021/09/16 12:53:52;;;;;;;7.95;4.18;;;21.80;99.90;;;;;;4993116;28;20060;-79
2021/09/16 12:56:19;;;;;;;5.82;4.53;;;21.80;99.90;;;;;;4993273;28;20155;-80
2021/09/16 12:58:47;;;;;;;7.65;4.97;;;21.60;99.90;;;;;;4993062;28;20056;-79
2021/09/16 13:01:14;;;;;;;13.20;5.18;;;21.60;99.90;;;;;;4993653;28;20056;-78
2021/09/16 13:04:02;;;;;;;11.75;4.65;;;21.60;99.90;;;;;;4994017;28;20078;-79
2021/09/16 13:06:32;;;;;;;8.68;4.90;;;21.50;99.90;;;;;;4993357;28;20059;-81